createdAt,value
2018-01-20T00:01:33.528Z,81.50
2018-01-20T00:04:02.722Z,81.09
2018-01-20T00:06:31.054Z,81.33
2018-01-20T00:08:59.407Z,81.57
2018-01-20T00:11:47.328Z,81.07
2018-01-20T00:14:17.113Z,80.87
2018-01-20T00:16:45.449Z,80.52
2018-01-20T00:19:13.803Z,80.01
2018-01-20T00:21:42.995Z,80.45
2018-01-20T00:24:12.069Z,79.87
2018-01-20T00:26:41.231Z,79.92
2018-01-20T00:29:09.568Z,80.51
2018-01-20T00:31:38.672Z,80.34
2018-01-20T00:34:07.737Z,80.60
2018-01-20T00:36:36.122Z,79.87
2018-01-20T00:39:04.454Z,81.31
2018-01-20T00:41:32.757Z,80.87
2018-01-20T00:44:01.105Z,81.01
2018-01-20T00:46:29.405Z,81.28
2018-01-20T00:48:57.744Z,80.59
2018-01-20T00:51:26.127Z,80.99
2018-01-20T00:53:54.450Z,82.77
2018-01-20T00:56:22.771Z,82.35
2018-01-20T00:58:52.174Z,81.35
2018-01-20T01:01:20.496Z,80.39
2018-01-20T01:03:48.801Z,80.58
2018-01-20T01:06:17.180Z,81.42
2018-01-20T01:08:45.485Z,80.91
2018-01-20T01:11:14.541Z,81.19
2018-01-20T01:13:42.851Z,80.71
2018-01-20T01:16:11.936Z,81.09
2018-01-20T01:18:40.260Z,81.40
2018-01-20T01:21:08.780Z,81.63
2018-01-20T01:23:37.095Z,80.87
2018-01-20T01:26:05.395Z,81.30
2018-01-20T01:28:33.730Z,81.24
2018-01-20T01:31:02.085Z,81.24
2018-01-20T01:33:30.404Z,81.13
2018-01-20T01:35:58.740Z,81.71
2018-01-20T01:38:27.091Z,82.50
2018-01-20T01:40:55.383Z,81.65
2018-01-20T01:43:23.924Z,81.46
2018-01-20T01:45:52.235Z,82.20
2018-01-20T01:48:20.606Z,80.80
2018-01-20T01:50:48.945Z,79.68
2018-01-20T01:53:17.478Z,80.40
2018-01-20T01:55:45.811Z,79.18
2018-01-20T01:58:14.913Z,78.80
2018-01-20T02:00:43.971Z,78.59
2018-01-20T02:03:13.058Z,78.71
2018-01-20T02:05:41.892Z,79.66
2018-01-20T02:08:10.211Z,80.07
2018-01-20T02:10:38.551Z,80.58
2018-01-20T02:13:07.679Z,79.51
2018-01-20T02:15:35.980Z,80.99
2018-01-20T02:18:04.332Z,81.04
2018-01-20T02:20:32.692Z,81.82
2018-01-20T02:23:01.027Z,81.01
2018-01-20T02:25:29.341Z,80.86
2018-01-20T02:27:57.766Z,81.22
2018-01-20T02:30:26.100Z,81.83
2018-01-20T02:32:54.421Z,81.67
2018-01-20T02:35:22.738Z,80.69
2018-01-20T02:37:51.849Z,80.47
2018-01-20T02:40:20.916Z,81.97
2018-01-20T02:42:49.277Z,82.58
2018-01-20T02:45:17.578Z,81.97
2018-01-20T02:47:45.901Z,81.00
2018-01-20T02:50:14.616Z,79.56
2018-01-20T02:52:42.912Z,79.94
2018-01-20T02:55:11.230Z,80.42
2018-01-20T02:57:40.353Z,81.26
2018-01-20T03:00:08.644Z,81.04
2018-01-20T03:02:36.962Z,81.54
2018-01-20T03:05:05.295Z,80.92
2018-01-20T03:07:33.616Z,82.11
2018-01-20T03:10:01.933Z,81.82
2018-01-20T03:12:31.079Z,82.35
2018-01-20T03:14:59.498Z,82.37
2018-01-20T03:17:28.715Z,83.05
2018-01-20T03:19:57.030Z,82.87
2018-01-20T03:22:25.476Z,82.07
2018-01-20T03:24:53.802Z,81.24
2018-01-20T03:27:22.248Z,80.73
2018-01-20T03:29:50.552Z,80.67
2018-01-20T03:32:18.924Z,80.73
2018-01-20T03:34:47.583Z,80.38
2018-01-20T03:37:15.938Z,79.79
2018-01-20T03:39:45.200Z,80.91
2018-01-20T03:42:13.528Z,80.09
2018-01-20T03:44:41.830Z,78.71
2018-01-20T03:47:10.190Z,79.37
2018-01-20T03:49:38.557Z,79.45
2018-01-20T03:52:06.902Z,79.08
2018-01-20T03:54:35.193Z,79.08
2018-01-20T03:57:04.580Z,79.94
2018-01-20T03:59:32.888Z,79.18
2018-01-20T04:02:01.178Z,79.24
2018-01-20T04:04:29.494Z,80.29
2018-01-20T04:06:57.830Z,80.98
2018-01-20T04:09:26.169Z,80.50
2018-01-20T04:11:54.509Z,80.46
2018-01-20T04:14:22.805Z,81.28
2018-01-20T04:16:51.336Z,81.94
2018-01-20T04:19:20.080Z,81.36
2018-01-20T04:21:48.393Z,81.68
2018-01-20T04:24:17.456Z,81.87
2018-01-20T04:26:45.823Z,81.63
2018-01-20T04:29:14.143Z,81.25
2018-01-20T04:31:43.240Z,81.47
2018-01-20T04:34:12.351Z,80.23
2018-01-20T04:36:40.684Z,81.44
2018-01-20T04:39:09.000Z,81.71
2018-01-20T04:41:37.492Z,80.94
2018-01-20T04:44:05.789Z,80.93
2018-01-20T04:46:34.084Z,79.49
2018-01-20T04:49:02.440Z,78.68
2018-01-20T04:51:30.761Z,78.76
2018-01-20T04:53:59.063Z,78.76
2018-01-20T04:56:27.394Z,78.35
2018-01-20T04:58:55.727Z,79.23
2018-01-20T05:01:24.808Z,80.22
2018-01-20T05:03:54.208Z,80.05
2018-01-20T05:06:22.579Z,79.67
2018-01-20T05:08:50.894Z,80.02
2018-01-20T05:11:19.238Z,80.16
2018-01-20T05:13:47.560Z,81.34
2018-01-20T05:16:15.866Z,81.84
2018-01-20T05:18:44.477Z,80.49
2018-01-20T05:21:12.826Z,80.24
2018-01-20T05:23:41.139Z,81.28
2018-01-20T05:26:09.912Z,80.43
2018-01-20T05:28:38.283Z,80.18
2018-01-20T05:31:06.579Z,80.35
2018-01-20T05:33:35.478Z,80.21
2018-01-20T05:36:03.815Z,80.17
2018-01-20T05:38:32.126Z,81.18
2018-01-20T05:41:00.490Z,81.05
2018-01-20T05:43:29.570Z,81.17
2018-01-20T05:45:57.897Z,81.54
2018-01-20T05:48:28.019Z,80.92
2018-01-20T05:50:56.348Z,80.48
2018-01-20T05:53:24.638Z,81.34
2018-01-20T05:55:52.949Z,81.03
2018-01-20T05:58:21.365Z,80.64
2018-01-20T06:00:49.683Z,79.89
2018-01-20T06:03:18.032Z,80.53
2018-01-20T06:05:46.341Z,80.70
2018-01-20T06:08:14.678Z,81.15
2018-01-20T06:10:43.392Z,81.31
2018-01-20T06:13:11.753Z,81.47
2018-01-20T06:15:40.123Z,80.36
2018-01-20T06:18:08.428Z,80.14
2018-01-20T06:20:36.728Z,80.39
2018-01-20T06:23:05.047Z,80.39
2018-01-20T06:25:33.360Z,81.01
2018-01-20T06:28:02.431Z,82.15
2018-01-20T06:30:30.938Z,81.84
2018-01-20T06:32:59.560Z,81.19
2018-01-20T06:35:27.908Z,81.93
2018-01-20T06:37:56.221Z,81.10
2018-01-20T06:40:25.335Z,82.36
2018-01-20T06:42:53.636Z,81.49
2018-01-20T06:45:21.921Z,81.48
2018-01-20T06:47:50.259Z,81.51
2018-01-20T06:50:18.587Z,81.81
2018-01-20T06:52:46.896Z,81.54
2018-01-20T06:55:15.497Z,81.01
2018-01-20T06:57:43.925Z,80.68
2018-01-20T07:00:12.216Z,81.11
2018-01-20T07:02:40.568Z,81.52
2018-01-20T07:05:08.894Z,80.08
2018-01-20T07:07:37.216Z,80.64
2018-01-20T07:10:05.678Z,81.31
2018-01-20T07:12:33.980Z,81.41
2018-01-20T07:15:02.270Z,80.86
2018-01-20T07:17:31.073Z,81.08
2018-01-20T07:19:59.396Z,81.11
2018-01-20T07:22:28.493Z,80.62
2018-01-20T07:24:56.860Z,80.38
2018-01-20T07:27:25.158Z,80.20
2018-01-20T07:29:53.494Z,79.88
2018-01-20T07:32:21.881Z,79.34
2018-01-20T07:34:50.967Z,80.93
2018-01-20T07:37:19.295Z,80.27
2018-01-20T07:39:47.773Z,80.76
2018-01-20T07:42:16.075Z,80.01
2018-01-20T07:44:44.402Z,79.98
2018-01-20T07:47:12.721Z,79.23
2018-01-20T07:49:41.035Z,79.08
2018-01-20T07:52:09.363Z,78.76
2018-01-20T07:54:37.728Z,78.47
2018-01-20T07:57:06.958Z,78.92
2018-01-20T07:59:35.278Z,80.10
2018-01-20T08:02:04.131Z,79.73
2018-01-20T08:04:32.558Z,79.82
2018-01-20T08:07:00.886Z,79.82
2018-01-20T08:09:29.237Z,80.67
2018-01-20T08:11:57.567Z,80.11
2018-01-20T08:14:26.014Z,79.83
2018-01-20T08:16:54.467Z,79.97
2018-01-20T08:19:22.792Z,80.45
2018-01-20T08:21:51.126Z,79.59
2018-01-20T08:24:19.881Z,79.80
2018-01-20T08:26:48.183Z,79.36
2018-01-20T08:29:16.492Z,79.50
2018-01-20T08:31:44.803Z,79.73
2018-01-20T08:34:13.111Z,79.49
2018-01-20T08:36:41.417Z,79.91
2018-01-20T08:39:09.748Z,79.53
2018-01-20T08:41:38.047Z,78.37
2018-01-20T08:44:06.364Z,78.68
2018-01-20T08:46:35.112Z,79.19
2018-01-20T08:49:03.437Z,79.61
2018-01-20T08:51:31.917Z,79.11
2018-01-20T08:54:00.336Z,78.94
2018-01-20T08:56:28.661Z,79.47
2018-01-20T08:58:57.031Z,79.97
2018-01-20T09:01:26.132Z,80.41
2018-01-20T09:03:55.251Z,80.25
2018-01-20T09:06:23.540Z,79.14
2018-01-20T09:08:52.317Z,80.58
2018-01-20T09:11:20.656Z,80.44
2018-01-20T09:13:49.758Z,80.04
2018-01-20T09:16:18.886Z,78.72
2018-01-20T09:18:47.315Z,78.77
2018-01-20T09:21:15.644Z,78.81
2018-01-20T09:23:44.037Z,78.30
2018-01-20T09:26:12.339Z,78.61
2018-01-20T09:28:40.668Z,79.26
2018-01-20T09:31:09.141Z,80.41
2018-01-20T09:33:38.254Z,80.13
2018-01-20T09:36:06.609Z,80.41
2018-01-20T09:38:35.281Z,79.73
2018-01-20T09:41:03.608Z,78.76
2018-01-20T09:43:31.913Z,77.97
2018-01-20T09:46:00.243Z,78.33
2018-01-20T09:48:28.556Z,78.91
2018-01-20T09:50:57.632Z,78.50
2018-01-20T09:53:26.396Z,78.42
2018-01-20T09:55:54.705Z,77.95
2018-01-20T09:58:23.024Z,77.02
2018-01-20T10:00:51.352Z,76.40
2018-01-20T10:03:19.648Z,76.96
2018-01-20T10:05:47.960Z,77.44
2018-01-20T10:08:16.526Z,76.96
2018-01-20T10:10:44.846Z,77.27
2018-01-20T10:13:13.912Z,77.42
2018-01-20T10:15:43.157Z,76.61
2018-01-20T10:18:11.508Z,75.59
2018-01-20T10:20:40.587Z,75.50
2018-01-20T10:23:08.912Z,75.92
2018-01-20T10:25:37.249Z,76.54
2018-01-20T10:28:05.581Z,76.18
2018-01-20T10:30:33.943Z,77.41
2018-01-20T10:33:02.261Z,77.00
2018-01-20T10:35:30.575Z,76.58
2018-01-20T10:38:00.699Z,75.20
2018-01-20T10:40:29.010Z,76.11
2018-01-20T10:42:57.337Z,75.02
2018-01-20T10:45:25.656Z,74.93
2018-01-20T10:47:54.016Z,75.17
2018-01-20T10:50:22.331Z,75.39
2018-01-20T10:52:50.675Z,74.67
2018-01-20T10:55:19.902Z,74.57
2018-01-20T10:57:48.590Z,73.63
2018-01-20T11:00:17.271Z,74.82
2018-01-20T11:02:45.561Z,75.90
2018-01-20T11:05:13.905Z,75.73
2018-01-20T11:07:42.275Z,76.27
2018-01-20T11:10:10.599Z,75.11
2018-01-20T11:12:38.912Z,75.81
2018-01-20T11:15:07.275Z,75.52
2018-01-20T11:17:35.625Z,74.66
2018-01-20T11:20:03.950Z,74.05
2018-01-20T11:22:32.544Z,75.36
2018-01-20T11:25:00.866Z,74.80
2018-01-20T11:27:29.338Z,74.83
2018-01-20T11:29:57.665Z,74.91
2018-01-20T11:32:25.993Z,74.93
2018-01-20T11:34:54.340Z,75.22
2018-01-20T11:37:22.714Z,74.25
2018-01-20T11:39:51.070Z,74.23
2018-01-20T11:42:19.409Z,73.94
2018-01-20T11:44:47.927Z,73.18
2018-01-20T11:47:16.228Z,73.57
2018-01-20T11:49:45.325Z,73.54
2018-01-20T11:52:13.688Z,72.56
2018-01-20T11:54:41.992Z,71.82
2018-01-20T11:57:10.305Z,72.28
2018-01-20T11:59:38.650Z,73.24
2018-01-20T12:02:07.718Z,72.59
2018-01-20T12:04:36.012Z,73.16
2018-01-20T12:07:05.008Z,73.80
2018-01-20T12:09:33.338Z,73.20
2018-01-20T12:12:01.665Z,73.32
2018-01-20T12:14:30.008Z,73.49
2018-01-20T12:16:58.316Z,72.48
2018-01-20T12:19:26.653Z,72.30
2018-01-20T12:21:55.020Z,72.47
2018-01-20T12:24:23.342Z,72.85
2018-01-20T12:26:51.662Z,72.86
2018-01-20T12:29:20.208Z,72.80
2018-01-20T12:31:48.540Z,73.46
2018-01-20T12:34:16.885Z,73.10
2018-01-20T12:36:45.240Z,71.79
2018-01-20T12:39:13.541Z,70.89
2018-01-20T12:41:42.659Z,70.80
2018-01-20T12:44:11.009Z,72.40
2018-01-20T12:46:40.126Z,72.70
2018-01-20T12:49:08.464Z,73.65
2018-01-20T12:51:36.899Z,73.57
2018-01-20T12:54:05.236Z,73.40
2018-01-20T12:56:33.579Z,73.77
2018-01-20T12:59:01.916Z,73.38
2018-01-20T13:01:30.231Z,72.90
2018-01-20T13:03:58.532Z,71.44
2018-01-20T13:06:26.896Z,70.24
2018-01-20T13:08:55.228Z,70.29
2018-01-20T13:11:23.564Z,69.85
2018-01-20T13:13:52.386Z,69.03
2018-01-20T13:16:20.699Z,69.91
2018-01-20T13:18:49.013Z,71.45
2018-01-20T13:21:17.367Z,71.17
2018-01-20T13:23:45.672Z,71.10
2018-01-20T13:26:13.976Z,72.00
2018-01-20T13:28:43.196Z,72.94
2018-01-20T13:31:11.552Z,73.02
2018-01-20T13:33:40.651Z,72.85
2018-01-20T13:36:09.331Z,73.29
2018-01-20T13:38:37.696Z,73.46
2018-01-20T13:41:06.000Z,73.47
2018-01-20T13:43:35.097Z,73.07
2018-01-20T13:46:04.213Z,73.75
2018-01-20T13:48:32.543Z,74.23
2018-01-20T13:51:00.908Z,73.71
2018-01-20T13:53:29.229Z,72.45
2018-01-20T13:55:58.319Z,72.78
2018-01-20T13:58:27.477Z,72.21
2018-01-20T14:00:55.791Z,71.89
2018-01-20T14:03:24.884Z,72.11
2018-01-20T14:05:54.009Z,71.40
2018-01-20T14:08:22.319Z,73.29
2018-01-20T14:10:50.635Z,72.96
2018-01-20T14:13:19.733Z,73.63
2018-01-20T14:15:48.044Z,73.39
2018-01-20T14:18:16.384Z,73.19
2018-01-20T14:20:45.268Z,73.33
2018-01-20T14:23:13.612Z,74.41
2018-01-20T14:25:41.936Z,73.99
2018-01-20T14:28:11.062Z,74.04
2018-01-20T14:30:39.404Z,73.39
2018-01-20T14:33:07.716Z,73.20
2018-01-20T14:35:36.052Z,73.27
2018-01-20T14:38:04.381Z,73.36
2018-01-20T14:40:32.690Z,73.47
2018-01-20T14:43:01.356Z,73.03
2018-01-20T14:45:29.649Z,72.98
2018-01-20T14:47:57.947Z,72.75
2018-01-20T14:50:26.299Z,73.21
2018-01-20T14:52:54.607Z,73.36
2018-01-20T14:55:22.913Z,72.92
2018-01-20T14:57:52.020Z,73.13
2018-01-20T15:00:20.346Z,73.59
2018-01-20T15:02:48.720Z,73.74
2018-01-20T15:05:17.555Z,73.79
2018-01-20T15:07:45.907Z,72.84
2018-01-20T15:10:14.216Z,73.39
2018-01-20T15:12:43.310Z,73.02
2018-01-20T15:15:12.403Z,72.20
2018-01-20T15:17:41.473Z,72.12
2018-01-20T15:20:09.822Z,71.88
2018-01-20T15:22:38.165Z,72.43
2018-01-20T15:25:06.505Z,72.16
2018-01-20T15:27:35.319Z,72.73
2018-01-20T15:30:03.695Z,72.51
2018-01-20T15:32:32.777Z,72.49
2018-01-20T15:35:01.128Z,73.11
2018-01-20T15:37:29.426Z,73.51
2018-01-20T15:39:57.729Z,73.53
2018-01-20T15:42:26.074Z,73.77
2018-01-20T15:44:54.380Z,73.70
2018-01-20T15:47:23.488Z,73.94
2018-01-20T15:49:52.894Z,73.67
2018-01-20T15:52:21.231Z,73.65
2018-01-20T15:54:49.564Z,73.96
2018-01-20T15:57:17.944Z,73.37
2018-01-20T15:59:46.437Z,73.74
2018-01-20T16:02:14.764Z,73.90
2018-01-20T16:04:43.098Z,73.76
2018-01-20T16:07:11.424Z,74.11
2018-01-20T16:09:39.734Z,74.62
2018-01-20T16:12:08.557Z,74.52
2018-01-20T16:14:36.892Z,74.75
2018-01-20T16:17:05.200Z,75.01
2018-01-20T16:19:34.330Z,75.04
2018-01-20T16:22:02.890Z,75.22
2018-01-20T16:24:31.229Z,74.66
2018-01-20T16:26:59.582Z,74.79
2018-01-20T16:29:27.912Z,74.68
2018-01-20T16:31:56.253Z,74.72
2018-01-20T16:34:25.146Z,75.22
2018-01-20T16:36:54.229Z,75.70
2018-01-20T16:39:22.526Z,75.63
2018-01-20T16:41:50.888Z,75.73
2018-01-20T16:44:19.285Z,74.83
2018-01-20T16:46:48.356Z,74.52
2018-01-20T16:49:16.719Z,74.55
2018-01-20T16:51:45.031Z,74.83
2018-01-20T16:54:14.168Z,74.79
2018-01-20T16:56:42.918Z,75.30
2018-01-20T16:59:11.240Z,75.00
2018-01-20T17:01:39.561Z,75.01
2018-01-20T17:04:07.882Z,75.00
2018-01-20T17:06:36.204Z,75.41
2018-01-20T17:09:04.605Z,75.43
2018-01-20T17:11:33.713Z,75.74
2018-01-20T17:14:02.795Z,74.87
2018-01-20T17:16:31.102Z,74.78
2018-01-20T17:18:59.870Z,74.00
2018-01-20T17:21:28.198Z,74.33
2018-01-20T17:23:56.859Z,75.64
2018-01-20T17:26:25.209Z,75.24
2018-01-20T17:28:54.300Z,74.90
2018-01-20T17:31:23.379Z,74.82
2018-01-20T17:33:51.727Z,74.91
2018-01-20T17:36:20.073Z,74.58
2018-01-20T17:38:48.419Z,73.95
2018-01-20T17:41:16.837Z,74.27
2018-01-20T17:43:45.157Z,73.73
2018-01-20T17:46:13.503Z,73.13
2018-01-20T17:48:41.860Z,72.91
2018-01-20T17:51:10.212Z,73.80
2018-01-20T17:53:38.524Z,74.44
2018-01-20T17:56:06.888Z,74.70
2018-01-20T17:58:35.958Z,74.67
2018-01-20T18:01:04.306Z,76.15
2018-01-20T18:03:32.927Z,76.75
2018-01-20T18:06:01.234Z,76.05
2018-01-20T18:08:30.323Z,75.87
2018-01-20T18:10:59.453Z,76.40
2018-01-20T18:13:27.767Z,76.10
2018-01-20T18:15:56.079Z,75.67
2018-01-20T18:18:25.211Z,75.44
2018-01-20T18:20:53.511Z,77.06
2018-01-20T18:23:21.844Z,76.76
2018-01-20T18:25:50.712Z,76.91
2018-01-20T18:28:19.036Z,76.27
2018-01-20T18:30:47.516Z,75.80
2018-01-20T18:33:15.864Z,76.30
2018-01-20T18:35:45.954Z,76.08
2018-01-20T18:38:14.280Z,76.26
2018-01-20T18:40:42.635Z,77.21
2018-01-20T18:43:10.934Z,78.63
2018-01-20T18:45:39.276Z,78.88
2018-01-20T18:48:07.943Z,78.27
2018-01-20T18:50:36.236Z,77.83
2018-01-20T18:53:04.565Z,78.20
2018-01-20T18:55:33.144Z,77.91
2018-01-20T18:58:01.428Z,77.99
2018-01-20T19:00:29.785Z,77.64
2018-01-20T19:02:58.154Z,77.44
2018-01-20T19:05:26.492Z,77.43
2018-01-20T19:07:54.818Z,77.06
2018-01-20T19:10:23.621Z,76.44
2018-01-20T19:12:51.967Z,76.30
2018-01-20T19:15:20.290Z,77.38
2018-01-20T19:17:48.635Z,78.71
2018-01-20T19:20:16.964Z,78.79
2018-01-20T19:22:45.300Z,78.56
2018-01-20T19:25:13.884Z,78.74
2018-01-20T19:27:42.239Z,78.69
2018-01-20T19:30:10.545Z,78.44
2018-01-20T19:32:39.971Z,79.34
2018-01-20T19:35:08.283Z,79.10
2018-01-20T19:37:36.583Z,79.34
2018-01-20T19:40:04.920Z,78.86
2018-01-20T19:42:33.259Z,78.94
2018-01-20T19:45:02.076Z,78.49
2018-01-20T19:47:30.469Z,77.93
2018-01-20T19:49:59.560Z,77.89
2018-01-20T19:52:27.903Z,78.18
2018-01-20T19:54:57.216Z,78.19
2018-01-20T19:57:25.507Z,77.40
2018-01-20T19:59:53.813Z,78.01
2018-01-20T20:02:22.225Z,77.56
2018-01-20T20:04:51.345Z,77.30
2018-01-20T20:07:19.681Z,77.86
2018-01-20T20:09:48.054Z,77.98
2018-01-20T20:12:16.417Z,78.43
2018-01-20T20:14:44.766Z,78.75
2018-01-20T20:17:13.296Z,78.30
2018-01-20T20:19:41.685Z,78.23
2018-01-20T20:22:10.008Z,78.64
2018-01-20T20:24:38.396Z,78.23
2018-01-20T20:27:06.743Z,78.36
2018-01-20T20:29:35.055Z,77.84
2018-01-20T20:32:03.389Z,77.33
2018-01-20T20:34:31.719Z,77.09
2018-01-20T20:37:00.048Z,77.08
2018-01-20T20:39:28.871Z,77.58
2018-01-20T20:41:57.231Z,77.83
2018-01-20T20:44:25.598Z,77.54
2018-01-20T20:46:54.748Z,77.07
2018-01-20T20:49:23.076Z,77.22
2018-01-20T20:51:52.423Z,76.64
2018-01-20T20:54:20.800Z,76.64
2018-01-20T20:56:49.126Z,76.33
2018-01-20T20:59:17.516Z,76.48
2018-01-20T21:01:46.693Z,76.48
2018-01-20T21:04:15.018Z,76.62
2018-01-20T21:06:43.337Z,77.00
2018-01-20T21:09:11.707Z,77.12
2018-01-20T21:11:40.031Z,76.89
2018-01-20T21:14:09.156Z,76.67
2018-01-20T21:16:37.498Z,76.42
2018-01-20T21:19:06.611Z,76.52
2018-01-20T21:21:34.948Z,76.87
2018-01-20T21:24:03.580Z,77.09
2018-01-20T21:26:31.916Z,77.64
2018-01-20T21:29:00.243Z,77.92
2018-01-20T21:31:28.576Z,77.38
2018-01-20T21:33:56.894Z,76.47
2018-01-20T21:36:25.228Z,76.23
2018-01-20T21:38:53.575Z,76.06
2018-01-20T21:41:21.871Z,75.74
2018-01-20T21:43:50.185Z,75.60
2018-01-20T21:46:19.848Z,75.93
2018-01-20T21:48:48.150Z,75.65
2018-01-20T21:51:16.462Z,75.67
2018-01-20T21:53:45.553Z,75.81
2018-01-20T21:56:14.662Z,75.52
2018-01-20T21:58:42.982Z,76.34
2018-01-20T22:01:11.292Z,77.09
2018-01-20T22:03:39.592Z,76.84
2018-01-20T22:06:08.103Z,75.79
2018-01-20T22:08:36.665Z,75.46
2018-01-20T22:11:04.981Z,74.81
2018-01-20T22:13:33.312Z,75.04
2018-01-20T22:16:02.409Z,74.81
2018-01-20T22:18:30.733Z,74.86
2018-01-20T22:20:59.063Z,74.54
2018-01-20T22:23:28.198Z,74.85
2018-01-20T22:25:56.539Z,74.10
2018-01-20T22:28:24.868Z,74.17
2018-01-20T22:30:53.492Z,74.21
2018-01-20T22:33:22.633Z,74.27
2018-01-20T22:35:50.958Z,74.11
2018-01-20T22:38:19.518Z,73.65
2018-01-20T22:40:47.829Z,73.60
2018-01-20T22:43:16.168Z,73.44
2018-01-20T22:45:44.508Z,73.53
2018-01-20T22:48:12.828Z,73.48
2018-01-20T22:50:41.162Z,73.87
2018-01-20T22:53:09.581Z,73.94
2018-01-20T22:55:37.907Z,73.87
2018-01-20T22:58:06.253Z,73.69
2018-01-20T23:00:34.601Z,73.69
2018-01-20T23:03:02.928Z,73.96
2018-01-20T23:05:31.242Z,73.59
2018-01-20T23:07:59.587Z,73.94
2018-01-20T23:10:28.674Z,73.22
2018-01-20T23:12:56.972Z,72.80
2018-01-20T23:15:26.345Z,72.82
2018-01-20T23:17:54.641Z,73.17
2018-01-20T23:20:23.730Z,73.36
2018-01-20T23:22:52.072Z,73.68
2018-01-20T23:25:20.390Z,73.53
2018-01-20T23:27:49.162Z,73.32
2018-01-20T23:30:17.511Z,73.76
2018-01-20T23:32:45.839Z,73.36
2018-01-20T23:35:14.919Z,73.25
2018-01-20T23:37:43.321Z,73.24
2018-01-20T23:40:11.644Z,73.07
2018-01-20T23:42:40.736Z,73.18
2018-01-20T23:45:09.088Z,73.33
2018-01-20T23:47:37.414Z,73.22
2018-01-20T23:50:05.736Z,72.78
2018-01-20T23:52:34.098Z,73.19
2018-01-20T23:55:02.417Z,73.51
2018-01-20T23:57:30.734Z,73.04
2018-01-20T23:59:59.849Z,73.24
